sensor_id;sensor_type;location;lat;lon;timestamp;P1;durP1;ratioP1;P2;durP2;ratioP2
84101;SDS011;74198;51.618;8.334;2024-02-26T00:02:04;2.72;;;1.67;;
84101;SDS011;74198;51.618;8.334;2024-02-26T00:04:31;4.07;;;1.50;;
84101;SDS011;74198;51.618;8.334;2024-02-26T00:06:57;2.63;;;1.60;;
84101;SDS011;74198;51.618;8.334;2024-02-26T00:09:23;2.33;;;1.42;;
84101;SDS011;74198;51.618;8.334;2024-02-26T00:11:49;3.38;;;1.40;;
84101;SDS011;74198;51.618;8.334;2024-02-26T00:14:15;4.18;;;1.52;;
84101;SDS011;74198;51.618;8.334;2024-02-26T00:16:41;2.78;;;1.45;;
84101;SDS011;74198;51.618;8.334;2024-02-26T00:19:07;2.65;;;1.20;;
84101;SDS011;74198;51.618;8.334;2024-02-26T00:21:33;2.45;;;1.15;;
84101;SDS011;74198;51.618;8.334;2024-02-26T00:23:59;2.00;;;1.13;;
84101;SDS011;74198;51.618;8.334;2024-02-26T00:26:25;2.60;;;1.23;;
84101;SDS011;74198;51.618;8.334;2024-02-26T00:28:51;1.98;;;1.27;;
84101;SDS011;74198;51.618;8.334;2024-02-26T00:31:17;6.18;;;1.65;;
84101;SDS011;74198;51.618;8.334;2024-02-26T00:33:43;2.97;;;1.30;;
84101;SDS011;74198;51.618;8.334;2024-02-26T00:36:09;2.40;;;1.48;;
84101;SDS011;74198;51.618;8.334;2024-02-26T00:38:35;2.65;;;0.90;;
84101;SDS011;74198;51.618;8.334;2024-02-26T00:41:01;2.50;;;1.33;;
84101;SDS011;74198;51.618;8.334;2024-02-26T00:43:27;4.22;;;1.23;;
84101;SDS011;74198;51.618;8.334;2024-02-26T00:45:53;2.58;;;1.10;;
84101;SDS011;74198;51.618;8.334;2024-02-26T00:48:19;2.35;;;1.25;;
84101;SDS011;74198;51.618;8.334;2024-02-26T00:50:45;2.58;;;1.20;;
84101;SDS011;74198;51.618;8.334;2024-02-26T00:53:11;2.35;;;1.20;;
84101;SDS011;74198;51.618;8.334;2024-02-26T00:55:37;2.72;;;1.40;;
84101;SDS011;74198;51.618;8.334;2024-02-26T00:58:03;2.17;;;1.15;;
84101;SDS011;74198;51.618;8.334;2024-02-26T01:00:29;2.00;;;1.15;;
84101;SDS011;74198;51.618;8.334;2024-02-26T01:02:55;2.03;;;1.02;;
84101;SDS011;74198;51.618;8.334;2024-02-26T01:05:21;2.30;;;1.17;;
84101;SDS011;74198;51.618;8.334;2024-02-26T01:07:47;1.92;;;1.25;;
84101;SDS011;74198;51.618;8.334;2024-02-26T01:10:13;3.03;;;1.35;;
84101;SDS011;74198;51.618;8.334;2024-02-26T01:12:39;3.20;;;1.40;;
84101;SDS011;74198;51.618;8.334;2024-02-26T01:15:05;3.60;;;1.60;;
84101;SDS011;74198;51.618;8.334;2024-02-26T01:17:32;2.08;;;1.10;;
84101;SDS011;74198;51.618;8.334;2024-02-26T01:19:58;2.35;;;1.27;;
84101;SDS011;74198;51.618;8.334;2024-02-26T01:22:24;3.53;;;1.52;;
84101;SDS011;74198;51.618;8.334;2024-02-26T01:24:50;2.85;;;1.60;;
84101;SDS011;74198;51.618;8.334;2024-02-26T01:27:16;2.50;;;1.40;;
84101;SDS011;74198;51.618;8.334;2024-02-26T01:29:42;2.25;;;1.08;;
84101;SDS011;74198;51.618;8.334;2024-02-26T01:32:08;5.07;;;1.40;;
84101;SDS011;74198;51.618;8.334;2024-02-26T01:34:34;3.47;;;1.35;;
84101;SDS011;74198;51.618;8.334;2024-02-26T01:37:02;2.42;;;1.05;;
84101;SDS011;74198;51.618;8.334;2024-02-26T01:39:28;3.80;;;1.30;;
84101;SDS011;74198;51.618;8.334;2024-02-26T01:41:56;2.97;;;1.42;;
84101;SDS011;74198;51.618;8.334;2024-02-26T01:44:22;3.53;;;1.77;;
84101;SDS011;74198;51.618;8.334;2024-02-26T01:46:48;3.78;;;1.58;;
84101;SDS011;74198;51.618;8.334;2024-02-26T01:49:14;2.72;;;1.52;;
84101;SDS011;74198;51.618;8.334;2024-02-26T01:51:41;2.60;;;1.20;;
84101;SDS011;74198;51.618;8.334;2024-02-26T01:54:08;2.28;;;1.30;;
84101;SDS011;74198;51.618;8.334;2024-02-26T01:56:35;2.30;;;1.30;;
84101;SDS011;74198;51.618;8.334;2024-02-26T01:59:02;1.92;;;1.08;;
84101;SDS011;74198;51.618;8.334;2024-02-26T02:01:29;3.90;;;1.60;;
84101;SDS011;74198;51.618;8.334;2024-02-26T02:03:59;2.10;;;1.33;;
84101;SDS011;74198;51.618;8.334;2024-02-26T02:06:25;2.50;;;1.27;;
84101;SDS011;74198;51.618;8.334;2024-02-26T02:08:54;1.90;;;1.10;;
84101;SDS011;74198;51.618;8.334;2024-02-26T02:11:20;2.55;;;1.58;;
84101;SDS011;74198;51.618;8.334;2024-02-26T02:13:47;4.10;;;1.58;;
84101;SDS011;74198;51.618;8.334;2024-02-26T02:16:13;2.80;;;1.23;;
84101;SDS011;74198;51.618;8.334;2024-02-26T02:18:39;3.15;;;1.33;;
84101;SDS011;74198;51.618;8.334;2024-02-26T02:21:05;2.65;;;1.30;;
84101;SDS011;74198;51.618;8.334;2024-02-26T02:23:31;2.30;;;1.08;;
84101;SDS011;74198;51.618;8.334;2024-02-26T02:25:57;1.92;;;0.95;;
84101;SDS011;74198;51.618;8.334;2024-02-26T02:28:24;1.85;;;1.00;;
84101;SDS011;74198;51.618;8.334;2024-02-26T02:30:51;2.70;;;1.17;;
84101;SDS011;74198;51.618;8.334;2024-02-26T02:33:17;2.40;;;1.05;;
84101;SDS011;74198;51.618;8.334;2024-02-26T02:35:43;2.17;;;1.30;;
84101;SDS011;74198;51.618;8.334;2024-02-26T02:38:09;2.00;;;0.90;;
84101;SDS011;74198;51.618;8.334;2024-02-26T02:40:35;1.20;;;0.90;;
84101;SDS011;74198;51.618;8.334;2024-02-26T02:43:01;1.83;;;0.95;;
84101;SDS011;74198;51.618;8.334;2024-02-26T02:45:30;2.22;;;0.90;;
84101;SDS011;74198;51.618;8.334;2024-02-26T02:47:56;2.88;;;1.30;;
84101;SDS011;74198;51.618;8.334;2024-02-26T02:50:22;2.33;;;1.02;;
84101;SDS011;74198;51.618;8.334;2024-02-26T02:52:48;1.95;;;1.30;;
84101;SDS011;74198;51.618;8.334;2024-02-26T02:55:16;2.75;;;0.90;;
84101;SDS011;74198;51.618;8.334;2024-02-26T02:57:42;2.90;;;1.15;;
84101;SDS011;74198;51.618;8.334;2024-02-26T03:00:09;1.80;;;0.82;;
84101;SDS011;74198;51.618;8.334;2024-02-26T03:02:36;3.50;;;1.17;;
84101;SDS011;74198;51.618;8.334;2024-02-26T03:05:04;1.90;;;0.98;;
84101;SDS011;74198;51.618;8.334;2024-02-26T03:07:31;1.40;;;0.73;;
84101;SDS011;74198;51.618;8.334;2024-02-26T03:09:57;1.88;;;0.90;;
84101;SDS011;74198;51.618;8.334;2024-02-26T03:12:23;1.58;;;0.70;;
84101;SDS011;74198;51.618;8.334;2024-02-26T03:14:49;3.53;;;0.93;;
84101;SDS011;74198;51.618;8.334;2024-02-26T03:17:15;2.25;;;0.90;;
84101;SDS011;74198;51.618;8.334;2024-02-26T03:19:41;1.23;;;0.70;;
84101;SDS011;74198;51.618;8.334;2024-02-26T03:22:07;1.42;;;0.65;;
84101;SDS011;74198;51.618;8.334;2024-02-26T03:24:33;1.80;;;1.00;;
84101;SDS011;74198;51.618;8.334;2024-02-26T03:26:59;1.50;;;0.82;;
84101;SDS011;74198;51.618;8.334;2024-02-26T03:29:25;2.58;;;0.60;;
84101;SDS011;74198;51.618;8.334;2024-02-26T03:31:51;2.55;;;0.82;;
84101;SDS011;74198;51.618;8.334;2024-02-26T03:34:17;2.05;;;0.90;;
84101;SDS011;74198;51.618;8.334;2024-02-26T03:36:44;1.55;;;0.82;;
84101;SDS011;74198;51.618;8.334;2024-02-26T03:39:11;2.05;;;0.77;;
84101;SDS011;74198;51.618;8.334;2024-02-26T03:41:36;3.63;;;1.00;;
84101;SDS011;74198;51.618;8.334;2024-02-26T03:44:02;1.33;;;0.70;;
84101;SDS011;74198;51.618;8.334;2024-02-26T03:46:28;2.63;;;1.10;;
84101;SDS011;74198;51.618;8.334;2024-02-26T03:48:54;2.55;;;0.80;;
84101;SDS011;74198;51.618;8.334;2024-02-26T03:51:20;1.85;;;0.90;;
84101;SDS011;74198;51.618;8.334;2024-02-26T03:53:47;2.15;;;0.85;;
84101;SDS011;74198;51.618;8.334;2024-02-26T03:56:13;1.08;;;0.55;;
84101;SDS011;74198;51.618;8.334;2024-02-26T03:58:39;2.22;;;1.10;;
84101;SDS011;74198;51.618;8.334;2024-02-26T04:01:07;1.55;;;0.70;;
84101;SDS011;74198;51.618;8.334;2024-02-26T04:03:33;2.00;;;0.85;;
84101;SDS011;74198;51.618;8.334;2024-02-26T04:05:59;1.98;;;0.90;;
84101;SDS011;74198;51.618;8.334;2024-02-26T04:08:25;1.80;;;0.88;;
84101;SDS011;74198;51.618;8.334;2024-02-26T04:10:51;1.45;;;0.65;;
84101;SDS011;74198;51.618;8.334;2024-02-26T04:13:17;1.15;;;0.70;;
84101;SDS011;74198;51.618;8.334;2024-02-26T04:15:44;1.63;;;0.90;;
84101;SDS011;74198;51.618;8.334;2024-02-26T04:18:11;2.58;;;1.00;;
84101;SDS011;74198;51.618;8.334;2024-02-26T04:20:37;2.75;;;1.10;;
84101;SDS011;74198;51.618;8.334;2024-02-26T04:23:03;1.38;;;0.73;;
84101;SDS011;74198;51.618;8.334;2024-02-26T04:25:29;1.90;;;0.85;;
84101;SDS011;74198;51.618;8.334;2024-02-26T04:27:55;1.40;;;0.80;;
84101;SDS011;74198;51.618;8.334;2024-02-26T04:30:21;1.85;;;0.95;;
84101;SDS011;74198;51.618;8.334;2024-02-26T04:32:47;1.60;;;0.80;;
84101;SDS011;74198;51.618;8.334;2024-02-26T04:35:13;1.92;;;0.88;;
84101;SDS011;74198;51.618;8.334;2024-02-26T04:37:39;4.25;;;0.95;;
84101;SDS011;74198;51.618;8.334;2024-02-26T04:40:05;2.05;;;0.82;;
84101;SDS011;74198;51.618;8.334;2024-02-26T04:42:32;1.83;;;0.90;;
84101;SDS011;74198;51.618;8.334;2024-02-26T04:44:58;2.20;;;0.95;;
84101;SDS011;74198;51.618;8.334;2024-02-26T04:47:24;3.78;;;0.90;;
84101;SDS011;74198;51.618;8.334;2024-02-26T04:49:50;2.10;;;0.90;;
84101;SDS011;74198;51.618;8.334;2024-02-26T04:52:17;1.98;;;1.17;;
84101;SDS011;74198;51.618;8.334;2024-02-26T04:54:43;2.65;;;0.73;;
84101;SDS011;74198;51.618;8.334;2024-02-26T04:57:08;1.20;;;0.70;;
84101;SDS011;74198;51.618;8.334;2024-02-26T04:59:34;3.15;;;1.00;;
84101;SDS011;74198;51.618;8.334;2024-02-26T05:02:00;2.90;;;1.20;;
84101;SDS011;74198;51.618;8.334;2024-02-26T05:04:26;2.15;;;1.02;;
84101;SDS011;74198;51.618;8.334;2024-02-26T05:06:52;1.58;;;0.90;;
84101;SDS011;74198;51.618;8.334;2024-02-26T05:09:18;2.05;;;1.17;;
84101;SDS011;74198;51.618;8.334;2024-02-26T05:11:45;1.75;;;1.00;;
84101;SDS011;74198;51.618;8.334;2024-02-26T05:14:11;3.63;;;1.40;;
84101;SDS011;74198;51.618;8.334;2024-02-26T05:16:37;2.50;;;1.33;;
84101;SDS011;74198;51.618;8.334;2024-02-26T05:19:03;2.22;;;1.23;;
84101;SDS011;74198;51.618;8.334;2024-02-26T05:21:30;2.30;;;1.10;;
84101;SDS011;74198;51.618;8.334;2024-02-26T05:23:56;2.03;;;1.10;;
84101;SDS011;74198;51.618;8.334;2024-02-26T05:26:22;4.47;;;1.55;;
84101;SDS011;74198;51.618;8.334;2024-02-26T05:28:49;2.78;;;1.23;;
84101;SDS011;74198;51.618;8.334;2024-02-26T05:31:15;2.95;;;1.02;;
84101;SDS011;74198;51.618;8.334;2024-02-26T05:33:41;1.92;;;1.00;;
84101;SDS011;74198;51.618;8.334;2024-02-26T05:36:07;2.00;;;1.08;;
84101;SDS011;74198;51.618;8.334;2024-02-26T05:38:33;3.85;;;1.25;;
84101;SDS011;74198;51.618;8.334;2024-02-26T05:40:59;2.33;;;1.08;;
84101;SDS011;74198;51.618;8.334;2024-02-26T05:43:25;2.97;;;1.58;;
84101;SDS011;74198;51.618;8.334;2024-02-26T05:45:52;2.03;;;1.17;;
84101;SDS011;74198;51.618;8.334;2024-02-26T05:48:18;1.63;;;1.00;;
84101;SDS011;74198;51.618;8.334;2024-02-26T05:50:47;1.67;;;0.95;;
84101;SDS011;74198;51.618;8.334;2024-02-26T05:53:13;1.40;;;0.73;;
84101;SDS011;74198;51.618;8.334;2024-02-26T05:55:39;2.33;;;0.82;;
84101;SDS011;74198;51.618;8.334;2024-02-26T05:58:05;2.58;;;1.15;;
84101;SDS011;74198;51.618;8.334;2024-02-26T06:00:31;2.08;;;0.80;;
84101;SDS011;74198;51.618;8.334;2024-02-26T06:02:57;4.18;;;1.20;;
84101;SDS011;74198;51.618;8.334;2024-02-26T06:05:23;2.45;;;1.25;;
84101;SDS011;74198;51.618;8.334;2024-02-26T06:07:49;2.15;;;1.23;;
84101;SDS011;74198;51.618;8.334;2024-02-26T06:10:15;2.13;;;1.08;;
84101;SDS011;74198;51.618;8.334;2024-02-26T06:12:41;1.90;;;0.93;;
84101;SDS011;74198;51.618;8.334;2024-02-26T06:15:07;3.47;;;1.30;;
84101;SDS011;74198;51.618;8.334;2024-02-26T06:17:34;2.50;;;1.30;;
84101;SDS011;74198;51.618;8.334;2024-02-26T06:20:00;5.85;;;1.38;;
84101;SDS011;74198;51.618;8.334;2024-02-26T06:22:26;4.35;;;1.40;;
84101;SDS011;74198;51.618;8.334;2024-02-26T06:24:52;1.90;;;1.20;;
84101;SDS011;74198;51.618;8.334;2024-02-26T06:27:18;2.30;;;1.30;;
84101;SDS011;74198;51.618;8.334;2024-02-26T06:29:46;2.15;;;1.20;;
84101;SDS011;74198;51.618;8.334;2024-02-26T06:32:13;4.00;;;1.33;;
84101;SDS011;74198;51.618;8.334;2024-02-26T06:34:39;2.90;;;1.60;;
84101;SDS011;74198;51.618;8.334;2024-02-26T06:37:06;2.78;;;1.40;;
84101;SDS011;74198;51.618;8.334;2024-02-26T06:39:32;2.25;;;1.10;;
84101;SDS011;74198;51.618;8.334;2024-02-26T06:41:58;2.72;;;1.60;;
84101;SDS011;74198;51.618;8.334;2024-02-26T06:44:27;2.90;;;1.48;;
84101;SDS011;74198;51.618;8.334;2024-02-26T06:46:59;2.90;;;1.60;;
84101;SDS011;74198;51.618;8.334;2024-02-26T06:49:25;2.55;;;1.60;;
84101;SDS011;74198;51.618;8.334;2024-02-26T06:51:52;6.47;;;1.77;;
84101;SDS011;74198;51.618;8.334;2024-02-26T06:54:18;3.05;;;1.80;;
84101;SDS011;74198;51.618;8.334;2024-02-26T06:56:44;2.65;;;1.55;;
84101;SDS011;74198;51.618;8.334;2024-02-26T06:59:10;3.50;;;1.50;;
84101;SDS011;74198;51.618;8.334;2024-02-26T07:01:36;2.45;;;1.20;;
84101;SDS011;74198;51.618;8.334;2024-02-26T07:04:02;2.72;;;1.48;;
84101;SDS011;74198;51.618;8.334;2024-02-26T07:06:28;4.38;;;1.58;;
84101;SDS011;74198;51.618;8.334;2024-02-26T07:08:54;2.58;;;1.05;;
84101;SDS011;74198;51.618;8.334;2024-02-26T07:11:20;3.15;;;1.50;;
84101;SDS011;74198;51.618;8.334;2024-02-26T07:13:46;2.90;;;1.48;;
84101;SDS011;74198;51.618;8.334;2024-02-26T07:16:14;3.78;;;1.45;;
84101;SDS011;74198;51.618;8.334;2024-02-26T07:18:40;3.75;;;1.38;;
84101;SDS011;74198;51.618;8.334;2024-02-26T07:21:06;3.45;;;1.60;;
84101;SDS011;74198;51.618;8.334;2024-02-26T07:23:32;3.45;;;1.60;;
84101;SDS011;74198;51.618;8.334;2024-02-26T07:25:59;2.80;;;1.23;;
84101;SDS011;74198;51.618;8.334;2024-02-26T07:28:25;3.35;;;1.60;;
84101;SDS011;74198;51.618;8.334;2024-02-26T07:30:51;4.45;;;1.60;;
84101;SDS011;74198;51.618;8.334;2024-02-26T07:33:17;3.28;;;1.50;;
84101;SDS011;74198;51.618;8.334;2024-02-26T07:35:43;4.25;;;1.63;;
84101;SDS011;74198;51.618;8.334;2024-02-26T07:38:09;3.80;;;1.77;;
84101;SDS011;74198;51.618;8.334;2024-02-26T07:40:35;2.97;;;1.60;;
84101;SDS011;74198;51.618;8.334;2024-02-26T07:43:01;4.00;;;1.70;;
84101;SDS011;74198;51.618;8.334;2024-02-26T07:45:27;2.50;;;1.40;;
84101;SDS011;74198;51.618;8.334;2024-02-26T07:47:53;2.50;;;1.30;;
84101;SDS011;74198;51.618;8.334;2024-02-26T07:50:19;3.05;;;1.45;;
84101;SDS011;74198;51.618;8.334;2024-02-26T07:52:45;2.78;;;1.48;;
84101;SDS011;74198;51.618;8.334;2024-02-26T07:55:11;3.70;;;1.58;;
84101;SDS011;74198;51.618;8.334;2024-02-26T07:57:37;3.83;;;1.60;;
84101;SDS011;74198;51.618;8.334;2024-02-26T08:00:03;5.47;;;1.55;;
84101;SDS011;74198;51.618;8.334;2024-02-26T08:02:32;4.35;;;1.83;;
84101;SDS011;74198;51.618;8.334;2024-02-26T08:04:59;3.55;;;1.90;;
84101;SDS011;74198;51.618;8.334;2024-02-26T08:07:25;5.80;;;2.08;;
84101;SDS011;74198;51.618;8.334;2024-02-26T08:09:51;5.47;;;1.83;;
84101;SDS011;74198;51.618;8.334;2024-02-26T08:12:17;5.90;;;2.15;;
84101;SDS011;74198;51.618;8.334;2024-02-26T08:14:43;5.32;;;2.03;;
84101;SDS011;74198;51.618;8.334;2024-02-26T08:17:09;4.25;;;1.98;;
84101;SDS011;74198;51.618;8.334;2024-02-26T08:19:35;4.22;;;2.00;;
84101;SDS011;74198;51.618;8.334;2024-02-26T08:22:01;5.15;;;2.33;;
84101;SDS011;74198;51.618;8.334;2024-02-26T08:24:27;8.02;;;2.78;;
84101;SDS011;74198;51.618;8.334;2024-02-26T08:26:54;8.77;;;2.58;;
84101;SDS011;74198;51.618;8.334;2024-02-26T08:29:20;5.32;;;2.92;;
84101;SDS011;74198;51.618;8.334;2024-02-26T08:31:46;8.75;;;2.85;;
84101;SDS011;74198;51.618;8.334;2024-02-26T08:34:12;6.60;;;3.00;;
84101;SDS011;74198;51.618;8.334;2024-02-26T08:36:38;7.80;;;3.30;;
84101;SDS011;74198;51.618;8.334;2024-02-26T08:39:04;8.70;;;3.80;;
84101;SDS011;74198;51.618;8.334;2024-02-26T08:41:30;8.32;;;3.83;;
84101;SDS011;74198;51.618;8.334;2024-02-26T08:43:56;8.02;;;3.28;;
84101;SDS011;74198;51.618;8.334;2024-02-26T08:46:23;7.53;;;3.22;;
84101;SDS011;74198;51.618;8.334;2024-02-26T08:48:49;7.72;;;3.97;;
84101;SDS011;74198;51.618;8.334;2024-02-26T08:51:15;8.57;;;3.40;;
84101;SDS011;74198;51.618;8.334;2024-02-26T08:53:41;6.70;;;3.88;;
84101;SDS011;74198;51.618;8.334;2024-02-26T08:56:07;11.93;;;4.40;;
84101;SDS011;74198;51.618;8.334;2024-02-26T08:58:33;6.80;;;3.45;;
84101;SDS011;74198;51.618;8.334;2024-02-26T09:00:59;9.10;;;3.80;;
84101;SDS011;74198;51.618;8.334;2024-02-26T09:03:25;8.23;;;3.55;;
84101;SDS011;74198;51.618;8.334;2024-02-26T09:05:51;7.22;;;3.13;;
84101;SDS011;74198;51.618;8.334;2024-02-26T09:08:17;7.35;;;3.92;;
84101;SDS011;74198;51.618;8.334;2024-02-26T09:10:43;10.43;;;4.28;;
84101;SDS011;74198;51.618;8.334;2024-02-26T09:13:09;10.13;;;4.05;;
84101;SDS011;74198;51.618;8.334;2024-02-26T09:15:35;9.07;;;3.85;;
84101;SDS011;74198;51.618;8.334;2024-02-26T09:18:01;8.82;;;4.32;;
84101;SDS011;74198;51.618;8.334;2024-02-26T09:20:28;8.85;;;3.80;;
84101;SDS011;74198;51.618;8.334;2024-02-26T09:22:54;7.72;;;3.90;;
84101;SDS011;74198;51.618;8.334;2024-02-26T09:25:20;7.18;;;3.80;;
84101;SDS011;74198;51.618;8.334;2024-02-26T09:27:46;8.05;;;4.32;;
84101;SDS011;74198;51.618;8.334;2024-02-26T09:30:13;6.93;;;3.85;;
84101;SDS011;74198;51.618;8.334;2024-02-26T09:32:39;10.07;;;4.50;;
84101;SDS011;74198;51.618;8.334;2024-02-26T09:35:06;10.82;;;4.72;;
84101;SDS011;74198;51.618;8.334;2024-02-26T09:37:32;8.45;;;4.32;;
84101;SDS011;74198;51.618;8.334;2024-02-26T09:39:58;10.88;;;4.63;;
84101;SDS011;74198;51.618;8.334;2024-02-26T09:42:27;7.07;;;3.60;;
84101;SDS011;74198;51.618;8.334;2024-02-26T09:44:55;6.65;;;3.42;;
84101;SDS011;74198;51.618;8.334;2024-02-26T09:47:23;6.53;;;3.03;;
84101;SDS011;74198;51.618;8.334;2024-02-26T09:49:49;7.05;;;2.88;;
84101;SDS011;74198;51.618;8.334;2024-02-26T09:52:15;4.80;;;2.63;;
84101;SDS011;74198;51.618;8.334;2024-02-26T09:54:41;7.15;;;3.17;;
84101;SDS011;74198;51.618;8.334;2024-02-26T09:57:09;5.97;;;2.97;;
84101;SDS011;74198;51.618;8.334;2024-02-26T09:59:39;7.85;;;3.00;;
84101;SDS011;74198;51.618;8.334;2024-02-26T10:02:12;7.75;;;3.50;;
84101;SDS011;74198;51.618;8.334;2024-02-26T10:04:39;5.63;;;2.88;;
84101;SDS011;74198;51.618;8.334;2024-02-26T10:07:07;5.75;;;2.88;;
84101;SDS011;74198;51.618;8.334;2024-02-26T10:09:35;8.65;;;3.33;;
84101;SDS011;74198;51.618;8.334;2024-02-26T10:12:01;8.13;;;3.75;;
84101;SDS011;74198;51.618;8.334;2024-02-26T10:14:27;6.18;;;3.00;;
84101;SDS011;74198;51.618;8.334;2024-02-26T10:16:53;5.38;;;2.72;;
84101;SDS011;74198;51.618;8.334;2024-02-26T10:19:26;5.25;;;3.00;;
84101;SDS011;74198;51.618;8.334;2024-02-26T10:21:58;7.78;;;2.75;;
84101;SDS011;74198;51.618;8.334;2024-02-26T10:24:25;6.78;;;2.10;;
84101;SDS011;74198;51.618;8.334;2024-02-26T10:26:52;5.55;;;3.05;;
84101;SDS011;74198;51.618;8.334;2024-02-26T10:29:18;4.82;;;2.67;;
84101;SDS011;74198;51.618;8.334;2024-02-26T10:31:45;6.40;;;2.85;;
84101;SDS011;74198;51.618;8.334;2024-02-26T10:34:11;5.50;;;2.45;;
84101;SDS011;74198;51.618;8.334;2024-02-26T10:36:37;4.43;;;2.10;;
84101;SDS011;74198;51.618;8.334;2024-02-26T10:39:06;5.05;;;2.33;;
84101;SDS011;74198;51.618;8.334;2024-02-26T10:41:35;5.63;;;2.72;;
84101;SDS011;74198;51.618;8.334;2024-02-26T10:44:01;4.88;;;2.35;;
84101;SDS011;74198;51.618;8.334;2024-02-26T10:46:28;5.55;;;2.63;;
84101;SDS011;74198;51.618;8.334;2024-02-26T10:48:54;4.72;;;2.33;;
84101;SDS011;74198;51.618;8.334;2024-02-26T10:51:27;4.60;;;2.17;;
84101;SDS011;74198;51.618;8.334;2024-02-26T10:53:57;5.00;;;2.35;;
84101;SDS011;74198;51.618;8.334;2024-02-26T10:56:26;4.90;;;2.35;;
84101;SDS011;74198;51.618;8.334;2024-02-26T10:58:55;3.97;;;2.03;;
84101;SDS011;74198;51.618;8.334;2024-02-26T11:01:22;4.95;;;2.20;;
84101;SDS011;74198;51.618;8.334;2024-02-26T11:03:50;3.70;;;1.80;;
84101;SDS011;74198;51.618;8.334;2024-02-26T11:06:17;5.85;;;1.52;;
84101;SDS011;74198;51.618;8.334;2024-02-26T11:08:43;3.22;;;1.83;;
84101;SDS011;74198;51.618;8.334;2024-02-26T11:11:09;3.83;;;1.90;;
84101;SDS011;74198;51.618;8.334;2024-02-26T11:13:40;3.95;;;1.65;;
84101;SDS011;74198;51.618;8.334;2024-02-26T11:16:09;3.38;;;1.40;;
84101;SDS011;74198;51.618;8.334;2024-02-26T11:18:35;3.72;;;1.50;;
84101;SDS011;74198;51.618;8.334;2024-02-26T11:21:02;5.68;;;1.50;;
84101;SDS011;74198;51.618;8.334;2024-02-26T11:23:28;4.22;;;1.13;;
84101;SDS011;74198;51.618;8.334;2024-02-26T11:25:55;3.78;;;1.85;;
84101;SDS011;74198;51.618;8.334;2024-02-26T11:28:21;3.67;;;2.00;;
84101;SDS011;74198;51.618;8.334;2024-02-26T11:30:48;3.85;;;2.00;;
84101;SDS011;74198;51.618;8.334;2024-02-26T11:33:15;2.88;;;1.60;;
84101;SDS011;74198;51.618;8.334;2024-02-26T11:35:41;4.57;;;2.53;;
84101;SDS011;74198;51.618;8.334;2024-02-26T11:38:08;3.88;;;2.25;;
84101;SDS011;74198;51.618;8.334;2024-02-26T11:40:37;3.65;;;2.20;;
84101;SDS011;74198;51.618;8.334;2024-02-26T11:43:07;5.10;;;2.95;;
84101;SDS011;74198;51.618;8.334;2024-02-26T11:48:15;6.35;;;3.13;;
84101;SDS011;74198;51.618;8.334;2024-02-26T11:50:48;9.30;;;4.22;;
84101;SDS011;74198;51.618;8.334;2024-02-26T11:58:39;5.07;;;3.05;;
84101;SDS011;74198;51.618;8.334;2024-02-26T12:01:05;5.75;;;2.85;;
84101;SDS011;74198;51.618;8.334;2024-02-26T12:03:31;7.82;;;4.78;;
84101;SDS011;74198;51.618;8.334;2024-02-26T12:05:57;5.72;;;2.92;;
84101;SDS011;74198;51.618;8.334;2024-02-26T12:08:23;6.20;;;2.80;;
84101;SDS011;74198;51.618;8.334;2024-02-26T12:10:50;5.25;;;2.90;;
84101;SDS011;74198;51.618;8.334;2024-02-26T12:13:19;5.25;;;2.70;;
84101;SDS011;74198;51.618;8.334;2024-02-26T12:15:54;4.75;;;2.65;;
84101;SDS011;74198;51.618;8.334;2024-02-26T12:18:21;4.15;;;2.45;;
84101;SDS011;74198;51.618;8.334;2024-02-26T12:21:01;4.28;;;2.53;;
84101;SDS011;74198;51.618;8.334;2024-02-26T12:23:27;3.65;;;2.03;;
84101;SDS011;74198;51.618;8.334;2024-02-26T12:25:59;4.00;;;2.20;;
84101;SDS011;74198;51.618;8.334;2024-02-26T12:28:29;4.50;;;2.60;;
84101;SDS011;74198;51.618;8.334;2024-02-26T12:30:55;6.38;;;2.20;;
84101;SDS011;74198;51.618;8.334;2024-02-26T12:33:21;31.38;;;18.30;;
84101;SDS011;74198;51.618;8.334;2024-02-26T12:35:47;12.40;;;7.97;;
84101;SDS011;74198;51.618;8.334;2024-02-26T12:38:14;9.18;;;4.60;;
84101;SDS011;74198;51.618;8.334;2024-02-26T12:40:41;14.07;;;9.57;;
84101;SDS011;74198;51.618;8.334;2024-02-26T12:43:07;6.53;;;3.55;;
84101;SDS011;74198;51.618;8.334;2024-02-26T12:45:39;10.73;;;5.97;;
84101;SDS011;74198;51.618;8.334;2024-02-26T12:48:06;7.43;;;3.88;;
84101;SDS011;74198;51.618;8.334;2024-02-26T12:50:32;7.55;;;4.30;;
84101;SDS011;74198;51.618;8.334;2024-02-26T12:52:59;5.53;;;3.15;;
84101;SDS011;74198;51.618;8.334;2024-02-26T12:55:25;5.95;;;3.13;;
84101;SDS011;74198;51.618;8.334;2024-02-26T12:57:52;6.80;;;3.65;;
84101;SDS011;74198;51.618;8.334;2024-02-26T13:00:20;8.00;;;3.50;;
84101;SDS011;74198;51.618;8.334;2024-02-26T13:02:47;5.05;;;2.65;;
84101;SDS011;74198;51.618;8.334;2024-02-26T13:05:14;4.97;;;2.70;;
84101;SDS011;74198;51.618;8.334;2024-02-26T13:07:41;4.57;;;1.95;;
84101;SDS011;74198;51.618;8.334;2024-02-26T13:10:08;5.00;;;2.70;;
84101;SDS011;74198;51.618;8.334;2024-02-26T13:12:34;5.00;;;2.35;;
84101;SDS011;74198;51.618;8.334;2024-02-26T13:15:00;4.85;;;2.60;;
84101;SDS011;74198;51.618;8.334;2024-02-26T13:17:26;5.05;;;2.58;;
84101;SDS011;74198;51.618;8.334;2024-02-26T13:19:53;5.25;;;2.60;;
84101;SDS011;74198;51.618;8.334;2024-02-26T13:22:22;6.50;;;3.22;;
84101;SDS011;74198;51.618;8.334;2024-02-26T13:24:58;6.97;;;3.10;;
84101;SDS011;74198;51.618;8.334;2024-02-26T13:27:25;6.50;;;3.03;;
84101;SDS011;74198;51.618;8.334;2024-02-26T13:30:04;5.18;;;3.00;;
84101;SDS011;74198;51.618;8.334;2024-02-26T13:32:34;7.07;;;3.50;;
84101;SDS011;74198;51.618;8.334;2024-02-26T13:35:10;7.38;;;3.60;;
84101;SDS011;74198;51.618;8.334;2024-02-26T13:37:37;7.60;;;4.10;;
84101;SDS011;74198;51.618;8.334;2024-02-26T13:40:06;7.78;;;3.65;;
84101;SDS011;74198;51.618;8.334;2024-02-26T13:42:34;6.40;;;3.83;;
84101;SDS011;74198;51.618;8.334;2024-02-26T13:45:00;6.63;;;3.05;;
84101;SDS011;74198;51.618;8.334;2024-02-26T13:47:26;8.02;;;4.00;;
84101;SDS011;74198;51.618;8.334;2024-02-26T13:49:52;6.53;;;3.22;;
84101;SDS011;74198;51.618;8.334;2024-02-26T13:52:18;7.45;;;4.07;;
84101;SDS011;74198;51.618;8.334;2024-02-26T13:54:45;6.13;;;3.28;;
84101;SDS011;74198;51.618;8.334;2024-02-26T13:57:11;6.93;;;3.90;;
84101;SDS011;74198;51.618;8.334;2024-02-26T13:59:37;6.60;;;4.00;;
84101;SDS011;74198;51.618;8.334;2024-02-26T14:02:07;5.70;;;3.58;;
84101;SDS011;74198;51.618;8.334;2024-02-26T14:04:33;6.13;;;2.55;;
84101;SDS011;74198;51.618;8.334;2024-02-26T14:06:59;14.77;;;4.72;;
84101;SDS011;74198;51.618;8.334;2024-02-26T14:09:25;8.40;;;3.80;;
84101;SDS011;74198;51.618;8.334;2024-02-26T14:11:51;5.90;;;3.30;;
84101;SDS011;74198;51.618;8.334;2024-02-26T14:14:17;5.28;;;3.30;;
84101;SDS011;74198;51.618;8.334;2024-02-26T14:16:43;7.00;;;3.45;;
84101;SDS011;74198;51.618;8.334;2024-02-26T14:19:09;7.65;;;3.20;;
84101;SDS011;74198;51.618;8.334;2024-02-26T14:21:35;5.50;;;3.08;;
84101;SDS011;74198;51.618;8.334;2024-02-26T14:24:01;6.88;;;3.53;;
84101;SDS011;74198;51.618;8.334;2024-02-26T14:26:27;5.88;;;3.10;;
84101;SDS011;74198;51.618;8.334;2024-02-26T14:28:53;6.40;;;3.30;;
84101;SDS011;74198;51.618;8.334;2024-02-26T14:31:19;4.50;;;2.58;;
84101;SDS011;74198;51.618;8.334;2024-02-26T14:33:45;8.45;;;3.42;;
84101;SDS011;74198;51.618;8.334;2024-02-26T14:36:11;6.03;;;2.83;;
84101;SDS011;74198;51.618;8.334;2024-02-26T14:38:37;7.43;;;2.10;;
84101;SDS011;74198;51.618;8.334;2024-02-26T14:41:04;4.70;;;2.25;;
84101;SDS011;74198;51.618;8.334;2024-02-26T14:43:31;8.00;;;3.33;;
84101;SDS011;74198;51.618;8.334;2024-02-26T14:45:58;6.13;;;3.10;;
84101;SDS011;74198;51.618;8.334;2024-02-26T14:48:24;5.47;;;3.00;;
84101;SDS011;74198;51.618;8.334;2024-02-26T14:50:50;5.22;;;2.80;;
84101;SDS011;74198;51.618;8.334;2024-02-26T14:53:17;5.38;;;2.45;;